sensor_id;sensor_type;location;lat;lon;timestamp;P1;durP1;ratioP1;P2;durP2;ratioP2
5052;SDS011;2545;50.892;5.740;2023-04-03T00:01:26;8.10;;;4.80;;
5052;SDS011;2545;50.892;5.740;2023-04-03T00:03:51;7.57;;;5.20;;
5052;SDS011;2545;50.892;5.740;2023-04-03T00:06:17;8.17;;;4.83;;
5052;SDS011;2545;50.892;5.740;2023-04-03T00:08:42;5.70;;;4.90;;
5052;SDS011;2545;50.892;5.740;2023-04-03T00:11:08;7.17;;;5.43;;
5052;SDS011;2545;50.892;5.740;2023-04-03T00:13:34;8.70;;;4.60;;
5052;SDS011;2545;50.892;5.740;2023-04-03T00:15:59;7.80;;;5.80;;
5052;SDS011;2545;50.892;5.740;2023-04-03T00:18:25;8.10;;;5.73;;
5052;SDS011;2545;50.892;5.740;2023-04-03T00:20:50;7.10;;;5.10;;
5052;SDS011;2545;50.892;5.740;2023-04-03T00:23:16;7.83;;;5.97;;
5052;SDS011;2545;50.892;5.740;2023-04-03T00:25:41;10.53;;;5.97;;
5052;SDS011;2545;50.892;5.740;2023-04-03T00:28:08;6.63;;;5.93;;
5052;SDS011;2545;50.892;5.740;2023-04-03T00:30:33;6.33;;;5.73;;
5052;SDS011;2545;50.892;5.740;2023-04-03T00:32:59;5.97;;;5.37;;
5052;SDS011;2545;50.892;5.740;2023-04-03T00:35:25;12.57;;;5.83;;
5052;SDS011;2545;50.892;5.740;2023-04-03T00:37:51;13.93;;;6.30;;
5052;SDS011;2545;50.892;5.740;2023-04-03T00:40:18;7.27;;;5.90;;
5052;SDS011;2545;50.892;5.740;2023-04-03T00:42:45;12.90;;;5.93;;
5052;SDS011;2545;50.892;5.740;2023-04-03T00:47:40;12.83;;;6.50;;
5052;SDS011;2545;50.892;5.740;2023-04-03T00:50:06;8.83;;;6.17;;
5052;SDS011;2545;50.892;5.740;2023-04-03T00:52:33;8.50;;;6.23;;
5052;SDS011;2545;50.892;5.740;2023-04-03T00:55:00;10.20;;;6.57;;
5052;SDS011;2545;50.892;5.740;2023-04-03T00:57:28;11.60;;;6.00;;
5052;SDS011;2545;50.892;5.740;2023-04-03T00:59:57;7.40;;;6.70;;
5052;SDS011;2545;50.892;5.740;2023-04-03T01:02:26;8.10;;;6.27;;
5052;SDS011;2545;50.892;5.740;2023-04-03T01:04:52;8.20;;;6.10;;
5052;SDS011;2545;50.892;5.740;2023-04-03T01:07:26;6.70;;;6.00;;
5052;SDS011;2545;50.892;5.740;2023-04-03T01:09:58;13.23;;;6.67;;
5052;SDS011;2545;50.892;5.740;2023-04-03T01:12:28;8.10;;;5.97;;
5052;SDS011;2545;50.892;5.740;2023-04-03T01:15:00;10.73;;;6.00;;
5052;SDS011;2545;50.892;5.740;2023-04-03T01:17:39;13.00;;;6.20;;
5052;SDS011;2545;50.892;5.740;2023-04-03T01:28:09;9.03;;;5.60;;
5052;SDS011;2545;50.892;5.740;2023-04-03T01:31:00;14.50;;;5.77;;
5052;SDS011;2545;50.892;5.740;2023-04-03T01:33:37;8.87;;;5.87;;
5052;SDS011;2545;50.892;5.740;2023-04-03T01:36:03;7.77;;;6.13;;
5052;SDS011;2545;50.892;5.740;2023-04-03T01:38:29;15.17;;;6.47;;
5052;SDS011;2545;50.892;5.740;2023-04-03T01:40:55;9.03;;;5.77;;
5052;SDS011;2545;50.892;5.740;2023-04-03T01:43:20;8.67;;;6.23;;
5052;SDS011;2545;50.892;5.740;2023-04-03T01:45:46;8.17;;;5.63;;
5052;SDS011;2545;50.892;5.740;2023-04-03T01:48:11;10.97;;;6.13;;
5052;SDS011;2545;50.892;5.740;2023-04-03T01:50:38;8.27;;;6.30;;
5052;SDS011;2545;50.892;5.740;2023-04-03T01:53:03;12.13;;;6.10;;
5052;SDS011;2545;50.892;5.740;2023-04-03T01:55:29;12.83;;;6.90;;
5052;SDS011;2545;50.892;5.740;2023-04-03T01:57:54;11.50;;;6.77;;
5052;SDS011;2545;50.892;5.740;2023-04-03T02:00:20;11.23;;;6.50;;
5052;SDS011;2545;50.892;5.740;2023-04-03T02:02:45;9.47;;;6.47;;
5052;SDS011;2545;50.892;5.740;2023-04-03T02:05:10;12.50;;;7.30;;
5052;SDS011;2545;50.892;5.740;2023-04-03T02:07:36;11.40;;;7.70;;
5052;SDS011;2545;50.892;5.740;2023-04-03T02:10:01;13.73;;;7.67;;
5052;SDS011;2545;50.892;5.740;2023-04-03T02:12:27;7.73;;;6.30;;
5052;SDS011;2545;50.892;5.740;2023-04-03T02:14:52;13.70;;;6.60;;
5052;SDS011;2545;50.892;5.740;2023-04-03T02:17:17;9.73;;;7.03;;
5052;SDS011;2545;50.892;5.740;2023-04-03T02:19:42;10.57;;;6.47;;
5052;SDS011;2545;50.892;5.740;2023-04-03T02:22:08;10.43;;;7.17;;
5052;SDS011;2545;50.892;5.740;2023-04-03T02:24:33;14.00;;;7.07;;
5052;SDS011;2545;50.892;5.740;2023-04-03T02:26:58;12.03;;;7.87;;
5052;SDS011;2545;50.892;5.740;2023-04-03T02:29:24;10.37;;;7.80;;
5052;SDS011;2545;50.892;5.740;2023-04-03T02:31:50;14.33;;;7.60;;
5052;SDS011;2545;50.892;5.740;2023-04-03T02:34:15;10.90;;;7.60;;
5052;SDS011;2545;50.892;5.740;2023-04-03T02:36:41;12.33;;;7.63;;
5052;SDS011;2545;50.892;5.740;2023-04-03T02:39:06;12.37;;;7.47;;
5052;SDS011;2545;50.892;5.740;2023-04-03T02:41:32;10.07;;;7.40;;
5052;SDS011;2545;50.892;5.740;2023-04-03T02:44:01;10.40;;;7.63;;
5052;SDS011;2545;50.892;5.740;2023-04-03T02:46:27;16.90;;;7.90;;
5052;SDS011;2545;50.892;5.740;2023-04-03T02:48:52;14.00;;;7.20;;
5052;SDS011;2545;50.892;5.740;2023-04-03T02:51:17;12.00;;;8.50;;
5052;SDS011;2545;50.892;5.740;2023-04-03T02:53:43;12.33;;;7.77;;
5052;SDS011;2545;50.892;5.740;2023-04-03T02:56:08;10.07;;;7.80;;
5052;SDS011;2545;50.892;5.740;2023-04-03T02:58:34;10.53;;;8.20;;
5052;SDS011;2545;50.892;5.740;2023-04-03T03:00:59;12.30;;;7.90;;
5052;SDS011;2545;50.892;5.740;2023-04-03T03:03:25;13.50;;;7.37;;
5052;SDS011;2545;50.892;5.740;2023-04-03T03:05:50;11.03;;;8.00;;
5052;SDS011;2545;50.892;5.740;2023-04-03T03:08:25;14.00;;;8.73;;
5052;SDS011;2545;50.892;5.740;2023-04-03T03:10:50;16.40;;;7.83;;
5052;SDS011;2545;50.892;5.740;2023-04-03T03:13:16;15.53;;;8.77;;
5052;SDS011;2545;50.892;5.740;2023-04-03T03:15:41;12.23;;;9.23;;
5052;SDS011;2545;50.892;5.740;2023-04-03T03:18:06;13.50;;;8.73;;
5052;SDS011;2545;50.892;5.740;2023-04-03T03:20:32;14.57;;;8.90;;
5052;SDS011;2545;50.892;5.740;2023-04-03T03:22:57;16.73;;;8.07;;
5052;SDS011;2545;50.892;5.740;2023-04-03T03:25:22;28.73;;;9.97;;
5052;SDS011;2545;50.892;5.740;2023-04-03T03:27:47;17.50;;;9.70;;
5052;SDS011;2545;50.892;5.740;2023-04-03T03:30:13;13.83;;;9.60;;
5052;SDS011;2545;50.892;5.740;2023-04-03T03:32:38;30.33;;;12.50;;
5052;SDS011;2545;50.892;5.740;2023-04-03T03:35:04;19.70;;;12.07;;
5052;SDS011;2545;50.892;5.740;2023-04-03T03:37:29;15.80;;;9.57;;
5052;SDS011;2545;50.892;5.740;2023-04-03T03:39:55;15.97;;;11.03;;
5052;SDS011;2545;50.892;5.740;2023-04-03T03:42:20;20.20;;;10.67;;
5052;SDS011;2545;50.892;5.740;2023-04-03T03:44:45;15.40;;;10.60;;
5052;SDS011;2545;50.892;5.740;2023-04-03T03:47:10;13.90;;;9.60;;
5052;SDS011;2545;50.892;5.740;2023-04-03T03:49:36;14.90;;;10.07;;
5052;SDS011;2545;50.892;5.740;2023-04-03T03:52:01;14.40;;;10.00;;
5052;SDS011;2545;50.892;5.740;2023-04-03T03:54:27;13.40;;;10.57;;
5052;SDS011;2545;50.892;5.740;2023-04-03T03:56:52;18.23;;;8.87;;
5052;SDS011;2545;50.892;5.740;2023-04-03T03:59:17;12.87;;;9.23;;
5052;SDS011;2545;50.892;5.740;2023-04-03T04:01:43;13.17;;;9.23;;
5052;SDS011;2545;50.892;5.740;2023-04-03T04:04:08;14.23;;;8.20;;
5052;SDS011;2545;50.892;5.740;2023-04-03T04:06:33;14.90;;;8.30;;
5052;SDS011;2545;50.892;5.740;2023-04-03T04:08:58;15.20;;;8.93;;
5052;SDS011;2545;50.892;5.740;2023-04-03T04:11:24;13.23;;;8.60;;
5052;SDS011;2545;50.892;5.740;2023-04-03T04:13:49;14.93;;;8.40;;
5052;SDS011;2545;50.892;5.740;2023-04-03T04:16:15;14.20;;;8.40;;
5052;SDS011;2545;50.892;5.740;2023-04-03T04:18:40;22.30;;;9.40;;
5052;SDS011;2545;50.892;5.740;2023-04-03T04:21:05;16.80;;;9.03;;
5052;SDS011;2545;50.892;5.740;2023-04-03T04:23:31;14.80;;;9.57;;
5052;SDS011;2545;50.892;5.740;2023-04-03T04:25:56;15.40;;;10.77;;
5052;SDS011;2545;50.892;5.740;2023-04-03T04:28:21;13.13;;;9.03;;
5052;SDS011;2545;50.892;5.740;2023-04-03T04:30:46;12.57;;;9.13;;
5052;SDS011;2545;50.892;5.740;2023-04-03T04:33:12;10.10;;;8.30;;
5052;SDS011;2545;50.892;5.740;2023-04-03T04:35:39;14.83;;;9.33;;
5052;SDS011;2545;50.892;5.740;2023-04-03T04:38:06;14.73;;;8.87;;
5052;SDS011;2545;50.892;5.740;2023-04-03T04:40:33;14.77;;;9.60;;
5052;SDS011;2545;50.892;5.740;2023-04-03T04:42:58;14.87;;;9.27;;
5052;SDS011;2545;50.892;5.740;2023-04-03T04:45:24;11.70;;;9.30;;
5052;SDS011;2545;50.892;5.740;2023-04-03T04:47:49;15.30;;;10.40;;
5052;SDS011;2545;50.892;5.740;2023-04-03T04:50:16;19.57;;;10.23;;
5052;SDS011;2545;50.892;5.740;2023-04-03T04:52:41;13.73;;;9.43;;
5052;SDS011;2545;50.892;5.740;2023-04-03T04:55:07;13.03;;;8.87;;
5052;SDS011;2545;50.892;5.740;2023-04-03T04:57:32;13.03;;;9.60;;
5052;SDS011;2545;50.892;5.740;2023-04-03T04:59:58;16.20;;;9.97;;
5052;SDS011;2545;50.892;5.740;2023-04-03T05:02:23;18.33;;;10.10;;
5052;SDS011;2545;50.892;5.740;2023-04-03T05:04:48;16.30;;;10.47;;
5052;SDS011;2545;50.892;5.740;2023-04-03T05:07:15;14.67;;;9.97;;
5052;SDS011;2545;50.892;5.740;2023-04-03T05:09:40;16.50;;;10.63;;
5052;SDS011;2545;50.892;5.740;2023-04-03T05:12:07;15.80;;;11.10;;
5052;SDS011;2545;50.892;5.740;2023-04-03T05:14:32;21.27;;;11.83;;
5052;SDS011;2545;50.892;5.740;2023-04-03T05:16:57;15.60;;;11.67;;
5052;SDS011;2545;50.892;5.740;2023-04-03T05:19:23;24.63;;;12.70;;
5052;SDS011;2545;50.892;5.740;2023-04-03T05:21:48;15.93;;;11.33;;
5052;SDS011;2545;50.892;5.740;2023-04-03T05:24:14;23.17;;;11.00;;
5052;SDS011;2545;50.892;5.740;2023-04-03T05:26:41;15.53;;;10.77;;
5052;SDS011;2545;50.892;5.740;2023-04-03T05:29:06;15.53;;;10.33;;
5052;SDS011;2545;50.892;5.740;2023-04-03T05:31:32;20.13;;;10.20;;
5052;SDS011;2545;50.892;5.740;2023-04-03T05:33:57;18.00;;;11.73;;
5052;SDS011;2545;50.892;5.740;2023-04-03T05:36:23;16.70;;;10.83;;
5052;SDS011;2545;50.892;5.740;2023-04-03T05:38:48;16.10;;;11.40;;
5052;SDS011;2545;50.892;5.740;2023-04-03T05:41:14;16.40;;;10.47;;
5052;SDS011;2545;50.892;5.740;2023-04-03T05:43:40;17.47;;;11.53;;
5052;SDS011;2545;50.892;5.740;2023-04-03T05:46:13;13.93;;;10.27;;
5052;SDS011;2545;50.892;5.740;2023-04-03T05:48:40;15.73;;;11.37;;
5052;SDS011;2545;50.892;5.740;2023-04-03T05:51:05;24.17;;;13.17;;
5052;SDS011;2545;50.892;5.740;2023-04-03T05:53:33;21.43;;;12.13;;
5052;SDS011;2545;50.892;5.740;2023-04-03T05:56:02;24.50;;;13.30;;
5052;SDS011;2545;50.892;5.740;2023-04-03T05:58:28;21.07;;;12.47;;
5052;SDS011;2545;50.892;5.740;2023-04-03T06:00:53;18.47;;;11.23;;
5052;SDS011;2545;50.892;5.740;2023-04-03T06:03:19;17.63;;;11.07;;
5052;SDS011;2545;50.892;5.740;2023-04-03T06:05:44;18.20;;;11.50;;
5052;SDS011;2545;50.892;5.740;2023-04-03T06:08:11;25.43;;;14.57;;
5052;SDS011;2545;50.892;5.740;2023-04-03T06:10:37;24.50;;;13.80;;
5052;SDS011;2545;50.892;5.740;2023-04-03T06:13:03;26.90;;;14.90;;
5052;SDS011;2545;50.892;5.740;2023-04-03T06:15:29;26.50;;;14.67;;
5052;SDS011;2545;50.892;5.740;2023-04-03T06:17:54;22.17;;;10.83;;
5052;SDS011;2545;50.892;5.740;2023-04-03T06:20:20;30.60;;;14.83;;
5052;SDS011;2545;50.892;5.740;2023-04-03T06:22:45;20.80;;;13.53;;
5052;SDS011;2545;50.892;5.740;2023-04-03T06:25:10;25.53;;;15.30;;
5052;SDS011;2545;50.892;5.740;2023-04-03T06:27:37;18.83;;;12.33;;
5052;SDS011;2545;50.892;5.740;2023-04-03T06:30:02;19.00;;;12.17;;
5052;SDS011;2545;50.892;5.740;2023-04-03T06:32:28;16.97;;;12.23;;
5052;SDS011;2545;50.892;5.740;2023-04-03T06:34:54;20.80;;;10.70;;
5052;SDS011;2545;50.892;5.740;2023-04-03T06:37:21;18.63;;;11.13;;
5052;SDS011;2545;50.892;5.740;2023-04-03T06:39:47;24.23;;;12.23;;
5052;SDS011;2545;50.892;5.740;2023-04-03T06:42:13;20.60;;;12.30;;
5052;SDS011;2545;50.892;5.740;2023-04-03T06:44:38;21.67;;;11.80;;
5052;SDS011;2545;50.892;5.740;2023-04-03T06:47:04;16.90;;;9.13;;
5052;SDS011;2545;50.892;5.740;2023-04-03T06:49:30;14.20;;;8.33;;
5052;SDS011;2545;50.892;5.740;2023-04-03T06:51:55;13.30;;;9.40;;
5052;SDS011;2545;50.892;5.740;2023-04-03T06:54:21;10.80;;;8.10;;
5052;SDS011;2545;50.892;5.740;2023-04-03T06:56:46;12.43;;;8.93;;
5052;SDS011;2545;50.892;5.740;2023-04-03T06:59:12;11.37;;;6.70;;
5052;SDS011;2545;50.892;5.740;2023-04-03T07:01:39;10.27;;;6.57;;
5052;SDS011;2545;50.892;5.740;2023-04-03T07:04:05;10.20;;;6.63;;
5052;SDS011;2545;50.892;5.740;2023-04-03T07:06:31;12.03;;;7.83;;
5052;SDS011;2545;50.892;5.740;2023-04-03T07:08:58;11.30;;;6.50;;
5052;SDS011;2545;50.892;5.740;2023-04-03T07:11:24;14.87;;;7.70;;
5052;SDS011;2545;50.892;5.740;2023-04-03T07:13:50;14.20;;;6.97;;
5052;SDS011;2545;50.892;5.740;2023-04-03T07:16:16;8.53;;;6.10;;
5052;SDS011;2545;50.892;5.740;2023-04-03T07:18:41;9.70;;;6.10;;
5052;SDS011;2545;50.892;5.740;2023-04-03T07:21:06;12.83;;;6.57;;
5052;SDS011;2545;50.892;5.740;2023-04-03T07:23:32;10.20;;;7.43;;
5052;SDS011;2545;50.892;5.740;2023-04-03T07:25:57;9.80;;;6.87;;
5052;SDS011;2545;50.892;5.740;2023-04-03T07:28:23;11.40;;;6.80;;
5052;SDS011;2545;50.892;5.740;2023-04-03T07:30:50;10.90;;;5.73;;
5052;SDS011;2545;50.892;5.740;2023-04-03T07:33:19;8.07;;;5.63;;
5052;SDS011;2545;50.892;5.740;2023-04-03T07:35:46;9.90;;;6.17;;
5052;SDS011;2545;50.892;5.740;2023-04-03T07:38:11;8.50;;;6.10;;
5052;SDS011;2545;50.892;5.740;2023-04-03T07:40:37;17.10;;;7.83;;
5052;SDS011;2545;50.892;5.740;2023-04-03T07:43:04;11.63;;;6.60;;
5052;SDS011;2545;50.892;5.740;2023-04-03T07:45:30;11.77;;;6.13;;
5052;SDS011;2545;50.892;5.740;2023-04-03T07:47:55;13.03;;;5.53;;
5052;SDS011;2545;50.892;5.740;2023-04-03T07:50:21;18.67;;;6.60;;
5052;SDS011;2545;50.892;5.740;2023-04-03T07:52:47;10.93;;;5.70;;
5052;SDS011;2545;50.892;5.740;2023-04-03T07:55:13;7.40;;;4.63;;
5052;SDS011;2545;50.892;5.740;2023-04-03T07:57:38;7.67;;;5.30;;
5052;SDS011;2545;50.892;5.740;2023-04-03T08:00:04;7.63;;;4.97;;
5052;SDS011;2545;50.892;5.740;2023-04-03T08:02:30;9.23;;;4.73;;
5052;SDS011;2545;50.892;5.740;2023-04-03T08:04:57;8.53;;;4.47;;
5052;SDS011;2545;50.892;5.740;2023-04-03T08:07:22;8.00;;;4.57;;
5052;SDS011;2545;50.892;5.740;2023-04-03T08:09:48;7.27;;;4.90;;
5052;SDS011;2545;50.892;5.740;2023-04-03T08:12:14;10.80;;;5.03;;
5052;SDS011;2545;50.892;5.740;2023-04-03T08:14:40;10.53;;;4.20;;
5052;SDS011;2545;50.892;5.740;2023-04-03T08:17:05;13.57;;;4.40;;
5052;SDS011;2545;50.892;5.740;2023-04-03T08:19:34;7.07;;;3.90;;
5052;SDS011;2545;50.892;5.740;2023-04-03T08:22:00;12.17;;;4.73;;
5052;SDS011;2545;50.892;5.740;2023-04-03T08:24:28;11.00;;;3.93;;
5052;SDS011;2545;50.892;5.740;2023-04-03T08:26:53;5.33;;;3.90;;
5052;SDS011;2545;50.892;5.740;2023-04-03T08:29:19;7.70;;;4.70;;
5052;SDS011;2545;50.892;5.740;2023-04-03T08:31:46;7.30;;;2.90;;
5052;SDS011;2545;50.892;5.740;2023-04-03T08:34:12;12.80;;;3.80;;
5052;SDS011;2545;50.892;5.740;2023-04-03T08:36:38;6.90;;;3.60;;
5052;SDS011;2545;50.892;5.740;2023-04-03T08:39:03;8.23;;;3.67;;
5052;SDS011;2545;50.892;5.740;2023-04-03T08:41:36;6.53;;;3.03;;
5052;SDS011;2545;50.892;5.740;2023-04-03T08:52:28;6.60;;;3.17;;
5052;SDS011;2545;50.892;5.740;2023-04-03T08:55:02;6.60;;;3.50;;
5052;SDS011;2545;50.892;5.740;2023-04-03T08:58:40;13.40;;;4.40;;
5052;SDS011;2545;50.892;5.740;2023-04-03T09:00:50;5.13;;;2.90;;
5052;SDS011;2545;50.892;5.740;2023-04-03T09:03:20;4.67;;;2.93;;
5052;SDS011;2545;50.892;5.740;2023-04-03T09:05:54;13.63;;;3.37;;
5052;SDS011;2545;50.892;5.740;2023-04-03T09:08:26;12.90;;;3.90;;
5052;SDS011;2545;50.892;5.740;2023-04-03T09:11:11;5.70;;;3.40;;
5052;SDS011;2545;50.892;5.740;2023-04-03T09:14:02;6.37;;;2.87;;
5052;SDS011;2545;50.892;5.740;2023-04-03T09:16:54;5.60;;;2.60;;
5052;SDS011;2545;50.892;5.740;2023-04-03T09:22:07;8.23;;;3.20;;
5052;SDS011;2545;50.892;5.740;2023-04-03T09:24:38;8.23;;;3.27;;
5052;SDS011;2545;50.892;5.740;2023-04-03T09:27:04;6.47;;;2.43;;
5052;SDS011;2545;50.892;5.740;2023-04-03T09:29:33;3.97;;;2.80;;
5052;SDS011;2545;50.892;5.740;2023-04-03T09:32:09;3.10;;;2.43;;
5052;SDS011;2545;50.892;5.740;2023-04-03T09:34:47;3.70;;;2.60;;
5052;SDS011;2545;50.892;5.740;2023-04-03T09:37:32;10.23;;;2.87;;
5052;SDS011;2545;50.892;5.740;2023-04-03T09:40:01;5.53;;;3.43;;
5052;SDS011;2545;50.892;5.740;2023-04-03T09:42:29;6.97;;;3.13;;
5052;SDS011;2545;50.892;5.740;2023-04-03T09:45:00;4.73;;;2.73;;
5052;SDS011;2545;50.892;5.740;2023-04-03T09:50:41;4.00;;;2.60;;
5052;SDS011;2545;50.892;5.740;2023-04-03T09:52:48;5.57;;;2.67;;
5052;SDS011;2545;50.892;5.740;2023-04-03T09:55:18;13.57;;;3.37;;
5052;SDS011;2545;50.892;5.740;2023-04-03T09:57:51;6.20;;;2.40;;
5052;SDS011;2545;50.892;5.740;2023-04-03T10:00:27;10.63;;;3.30;;
5052;SDS011;2545;50.892;5.740;2023-04-03T10:02:56;4.83;;;2.83;;
5052;SDS011;2545;50.892;5.740;2023-04-03T10:08:07;2.93;;;2.37;;
5052;SDS011;2545;50.892;5.740;2023-04-03T10:10:43;8.73;;;2.53;;
5052;SDS011;2545;50.892;5.740;2023-04-03T10:13:12;5.77;;;2.90;;
5052;SDS011;2545;50.892;5.740;2023-04-03T10:15:43;8.17;;;2.40;;
5052;SDS011;2545;50.892;5.740;2023-04-03T10:18:20;3.03;;;2.03;;
5052;SDS011;2545;50.892;5.740;2023-04-03T10:20:59;4.17;;;2.33;;
5052;SDS011;2545;50.892;5.740;2023-04-03T10:23:33;5.77;;;2.43;;
5052;SDS011;2545;50.892;5.740;2023-04-03T10:31:21;4.50;;;2.10;;
5052;SDS011;2545;50.892;5.740;2023-04-03T10:34:05;3.80;;;2.03;;
5052;SDS011;2545;50.892;5.740;2023-04-03T10:39:39;5.57;;;1.60;;
5052;SDS011;2545;50.892;5.740;2023-04-03T10:47:52;6.03;;;2.77;;
5052;SDS011;2545;50.892;5.740;2023-04-03T10:50:40;5.07;;;2.00;;
5052;SDS011;2545;50.892;5.740;2023-04-03T10:58:56;5.87;;;1.90;;
5052;SDS011;2545;50.892;5.740;2023-04-03T11:01:27;7.90;;;1.80;;
5052;SDS011;2545;50.892;5.740;2023-04-03T11:03:58;4.07;;;2.27;;
5052;SDS011;2545;50.892;5.740;2023-04-03T11:06:26;4.40;;;2.57;;
5052;SDS011;2545;50.892;5.740;2023-04-03T11:09:03;2.30;;;1.67;;
5052;SDS011;2545;50.892;5.740;2023-04-03T11:11:38;3.40;;;1.53;;
5052;SDS011;2545;50.892;5.740;2023-04-03T11:17:05;2.60;;;1.80;;
5052;SDS011;2545;50.892;5.740;2023-04-03T11:24:55;2.13;;;1.43;;
5052;SDS011;2545;50.892;5.740;2023-04-03T11:27:28;4.20;;;1.57;;
5052;SDS011;2545;50.892;5.740;2023-04-03T11:30:03;4.00;;;1.80;;
5052;SDS011;2545;50.892;5.740;2023-04-03T11:32:44;5.10;;;1.77;;
5052;SDS011;2545;50.892;5.740;2023-04-03T11:35:13;3.90;;;1.77;;
5052;SDS011;2545;50.892;5.740;2023-04-03T11:37:42;5.87;;;2.50;;
5052;SDS011;2545;50.892;5.740;2023-04-03T11:43:04;3.43;;;1.87;;
5052;SDS011;2545;50.892;5.740;2023-04-03T11:45:34;2.50;;;1.53;;
5052;SDS011;2545;50.892;5.740;2023-04-03T11:50:44;3.33;;;1.83;;
5052;SDS011;2545;50.892;5.740;2023-04-03T11:58:20;4.30;;;1.90;;
5052;SDS011;2545;50.892;5.740;2023-04-03T12:00:58;3.13;;;1.47;;
5052;SDS011;2545;50.892;5.740;2023-04-03T12:05:54;9.27;;;2.87;;
5052;SDS011;2545;50.892;5.740;2023-04-03T12:16:22;6.60;;;2.17;;
5052;SDS011;2545;50.892;5.740;2023-04-03T12:21:18;9.07;;;2.23;;
5052;SDS011;2545;50.892;5.740;2023-04-03T12:26:31;11.33;;;2.30;;
5052;SDS011;2545;50.892;5.740;2023-04-03T12:29:18;17.37;;;2.40;;
5052;SDS011;2545;50.892;5.740;2023-04-03T12:32:01;10.10;;;2.30;;
5052;SDS011;2545;50.892;5.740;2023-04-03T12:46:44;8.10;;;1.93;;
5052;SDS011;2545;50.892;5.740;2023-04-03T12:49:22;14.93;;;2.50;;
5052;SDS011;2545;50.892;5.740;2023-04-03T12:51:56;10.70;;;2.10;;
5052;SDS011;2545;50.892;5.740;2023-04-03T12:59:40;11.03;;;2.40;;
5052;SDS011;2545;50.892;5.740;2023-04-03T13:04:51;13.90;;;2.27;;
5052;SDS011;2545;50.892;5.740;2023-04-03T13:07:22;9.60;;;2.27;;
5052;SDS011;2545;50.892;5.740;2023-04-03T13:09:57;13.93;;;2.60;;
5052;SDS011;2545;50.892;5.740;2023-04-03T13:15:16;10.10;;;2.00;;
5052;SDS011;2545;50.892;5.740;2023-04-03T13:17:47;9.87;;;2.03;;
5052;SDS011;2545;50.892;5.740;2023-04-03T13:20:19;13.37;;;2.57;;
5052;SDS011;2545;50.892;5.740;2023-04-03T13:22:49;10.97;;;1.80;;
5052;SDS011;2545;50.892;5.740;2023-04-03T13:25:20;11.07;;;1.97;;
5052;SDS011;2545;50.892;5.740;2023-04-03T13:27:47;13.37;;;2.23;;
5052;SDS011;2545;50.892;5.740;2023-04-03T13:30:20;10.27;;;2.10;;
5052;SDS011;2545;50.892;5.740;2023-04-03T13:32:49;11.20;;;2.00;;
5052;SDS011;2545;50.892;5.740;2023-04-03T13:35:25;11.60;;;2.00;;
5052;SDS011;2545;50.892;5.740;2023-04-03T13:37:54;12.77;;;2.27;;
5052;SDS011;2545;50.892;5.740;2023-04-03T13:40:21;11.27;;;2.20;;
5052;SDS011;2545;50.892;5.740;2023-04-03T13:42:48;19.90;;;2.43;;
5052;SDS011;2545;50.892;5.740;2023-04-03T13:45:32;11.60;;;2.33;;
5052;SDS011;2545;50.892;5.740;2023-04-03T13:48:16;11.53;;;2.20;;
5052;SDS011;2545;50.892;5.740;2023-04-03T13:50:57;12.30;;;2.03;;
5052;SDS011;2545;50.892;5.740;2023-04-03T13:53:23;11.07;;;2.03;;
5052;SDS011;2545;50.892;5.740;2023-04-03T13:56:00;12.00;;;2.30;;
5052;SDS011;2545;50.892;5.740;2023-04-03T13:58:31;12.10;;;2.43;;
5052;SDS011;2545;50.892;5.740;2023-04-03T14:06:13;13.00;;;2.10;;
5052;SDS011;2545;50.892;5.740;2023-04-03T14:08:41;10.87;;;2.17;;
5052;SDS011;2545;50.892;5.740;2023-04-03T14:11:09;13.70;;;2.10;;
5052;SDS011;2545;50.892;5.740;2023-04-03T14:13:39;12.43;;;2.20;;
5052;SDS011;2545;50.892;5.740;2023-04-03T14:16:04;12.00;;;2.40;;
5052;SDS011;2545;50.892;5.740;2023-04-03T14:18:30;13.30;;;2.30;;
5052;SDS011;2545;50.892;5.740;2023-04-03T14:20:55;11.40;;;2.40;;
5052;SDS011;2545;50.892;5.740;2023-04-03T14:23:20;12.43;;;2.63;;
5052;SDS011;2545;50.892;5.740;2023-04-03T14:25:46;10.83;;;2.10;;
5052;SDS011;2545;50.892;5.740;2023-04-03T14:28:21;12.27;;;2.23;;
5052;SDS011;2545;50.892;5.740;2023-04-03T14:30:47;11.63;;;2.40;;
5052;SDS011;2545;50.892;5.740;2023-04-03T14:33:17;14.90;;;2.30;;
5052;SDS011;2545;50.892;5.740;2023-04-03T14:35:44;11.37;;;1.83;;
5052;SDS011;2545;50.892;5.740;2023-04-03T14:38:21;11.27;;;2.13;;
5052;SDS011;2545;50.892;5.740;2023-04-03T14:40:51;10.40;;;2.13;;
5052;SDS011;2545;50.892;5.740;2023-04-03T14:43:18;10.50;;;1.90;;
5052;SDS011;2545;50.892;5.740;2023-04-03T14:45:44;11.30;;;1.83;;
5052;SDS011;2545;50.892;5.740;2023-04-03T14:48:12;10.60;;;2.00;;
5052;SDS011;2545;50.892;5.740;2023-04-03T14:50:42;12.70;;;1.90;;
5052;SDS011;2545;50.892;5.740;2023-04-03T14:53:09;10.70;;;1.60;;
5052;SDS011;2545;50.892;5.740;2023-04-03T14:55:36;10.63;;;2.27;;
5052;SDS011;2545;50.892;5.740;2023-04-03T14:58:02;10.37;;;2.00;;
5052;SDS011;2545;50.892;5.740;2023-04-03T15:00:27;11.37;;;2.00;;
5052;SDS011;2545;50.892;5.740;2023-04-03T15:02:52;10.90;;;1.77;;
5052;SDS011;2545;50.892;5.740;2023-04-03T15:05:18;10.60;;;2.07;;
5052;SDS011;2545;50.892;5.740;2023-04-03T15:07:46;15.60;;;2.10;;
5052;SDS011;2545;50.892;5.740;2023-04-03T15:12:42;9.10;;;1.80;;
5052;SDS011;2545;50.892;5.740;2023-04-03T15:15:09;11.47;;;2.20;;
5052;SDS011;2545;50.892;5.740;2023-04-03T15:17:35;10.40;;;2.10;;
5052;SDS011;2545;50.892;5.740;2023-04-03T15:20:01;10.47;;;1.90;;
5052;SDS011;2545;50.892;5.740;2023-04-03T15:22:28;11.07;;;1.60;;
5052;SDS011;2545;50.892;5.740;2023-04-03T15:24:53;10.10;;;1.67;;
5052;SDS011;2545;50.892;5.740;2023-04-03T15:27:19;11.67;;;2.17;;
5052;SDS011;2545;50.892;5.740;2023-04-03T15:29:44;9.80;;;1.87;;
5052;SDS011;2545;50.892;5.740;2023-04-03T15:32:10;10.33;;;1.70;;
5052;SDS011;2545;50.892;5.740;2023-04-03T15:34:36;9.70;;;1.90;;
5052;SDS011;2545;50.892;5.740;2023-04-03T15:37:02;9.77;;;2.10;;
5052;SDS011;2545;50.892;5.740;2023-04-03T15:39:27;11.47;;;2.40;;
5052;SDS011;2545;50.892;5.740;2023-04-03T15:41:53;9.30;;;2.07;;
5052;SDS011;2545;50.892;5.740;2023-04-03T15:44:20;12.07;;;2.30;;
5052;SDS011;2545;50.892;5.740;2023-04-03T15:46:46;10.57;;;2.17;;
5052;SDS011;2545;50.892;5.740;2023-04-03T15:49:13;10.23;;;2.37;;
5052;SDS011;2545;50.892;5.740;2023-04-03T15:51:39;10.80;;;1.80;;
5052;SDS011;2545;50.892;5.740;2023-04-03T15:54:04;16.10;;;2.70;;
5052;SDS011;2545;50.892;5.740;2023-04-03T15:56:30;9.03;;;1.70;;
5052;SDS011;2545;50.892;5.740;2023-04-03T15:58:55;10.17;;;2.20;;
5052;SDS011;2545;50.892;5.740;2023-04-03T16:01:20;8.60;;;2.03;;
5052;SDS011;2545;50.892;5.740;2023-04-03T16:03:46;9.67;;;2.20;;
5052;SDS011;2545;50.892;5.740;2023-04-03T16:06:15;7.97;;;1.83;;
5052;SDS011;2545;50.892;5.740;2023-04-03T16:08:42;9.37;;;2.20;;
5052;SDS011;2545;50.892;5.740;2023-04-03T16:11:08;9.67;;;2.00;;
5052;SDS011;2545;50.892;5.740;2023-04-03T16:13:34;10.10;;;2.10;;
5052;SDS011;2545;50.892;5.740;2023-04-03T16:15:59;8.37;;;1.83;;
5052;SDS011;2545;50.892;5.740;2023-04-03T16:18:26;10.17;;;2.57;;
5052;SDS011;2545;50.892;5.740;2023-04-03T16:20:53;12.17;;;2.23;;
5052;SDS011;2545;50.892;5.740;2023-04-03T16:23:19;10.57;;;2.23;;
5052;SDS011;2545;50.892;5.740;2023-04-03T16:25:45;10.30;;;2.20;;
5052;SDS011;2545;50.892;5.740;2023-04-03T16:28:11;9.77;;;2.30;;
5052;SDS011;2545;50.892;5.740;2023-04-03T16:30:39;7.47;;;1.60;;
5052;SDS011;2545;50.892;5.740;2023-04-03T16:33:05;12.20;;;2.67;;
5052;SDS011;2545;50.892;5.740;2023-04-03T16:35:30;10.00;;;2.10;;
5052;SDS011;2545;50.892;5.740;2023-04-03T16:37:56;11.47;;;1.87;;
5052;SDS011;2545;50.892;5.740;2023-04-03T16:40:21;10.17;;;2.00;;
5052;SDS011;2545;50.892;5.740;2023-04-03T16:42:46;11.07;;;2.57;;
5052;SDS011;2545;50.892;5.740;2023-04-03T16:45:12;18.53;;;2.83;;
5052;SDS011;2545;50.892;5.740;2023-04-03T16:47:37;8.80;;;1.80;;
5052;SDS011;2545;50.892;5.740;2023-04-03T16:50:03;13.37;;;2.80;;
5052;SDS011;2545;50.892;5.740;2023-04-03T16:52:28;12.70;;;2.53;;
5052;SDS011;2545;50.892;5.740;2023-04-03T16:54:53;14.57;;;2.27;;
5052;SDS011;2545;50.892;5.740;2023-04-03T16:57:20;14.00;;;2.33;;
5052;SDS011;2545;50.892;5.740;2023-04-03T16:59:47;8.90;;;1.93;;
5052;SDS011;2545;50.892;5.740;2023-04-03T17:02:14;8.73;;;1.90;;